createdAt,value
2017-03-13T00:00:13.140Z,21.34
2017-03-13T00:01:13.050Z,21.44
2017-03-13T00:02:13.002Z,21.44
2017-03-13T00:03:13.311Z,21.44
2017-03-13T00:04:13.255Z,21.04
2017-03-13T00:05:13.186Z,21.24
2017-03-13T00:06:13.128Z,21.53
2017-03-13T00:07:13.066Z,21.44
2017-03-13T00:08:13.001Z,21.44
2017-03-13T00:09:12.949Z,21.04
2017-03-13T00:10:12.877Z,21.44
2017-03-13T00:11:12.819Z,21.24
2017-03-13T00:12:12.753Z,21.44
2017-03-13T00:13:12.691Z,21.44
2017-03-13T00:14:12.635Z,21.04
2017-03-13T00:15:12.569Z,21.44
2017-03-13T00:16:12.513Z,21.04
2017-03-13T00:17:12.448Z,21.14
2017-03-13T00:18:12.390Z,21.04
2017-03-13T00:19:12.330Z,21.44
2017-03-13T00:20:12.272Z,21.62
2017-03-13T00:21:12.198Z,21.44
2017-03-13T00:22:12.143Z,21.14
2017-03-13T00:23:12.078Z,21.34
2017-03-13T00:24:12.005Z,21.04
2017-03-13T00:25:11.950Z,21.53
2017-03-13T00:26:11.500Z,21.04
2017-03-13T00:27:11.833Z,21.44
2017-03-13T00:28:11.771Z,21.53
2017-03-13T00:29:11.700Z,21.04
2017-03-13T00:30:11.644Z,21.44
2017-03-13T00:31:11.587Z,21.04
2017-03-13T00:32:11.511Z,21.04
2017-03-13T00:33:11.459Z,21.04
2017-03-13T00:34:11.012Z,21.24
2017-03-13T00:35:10.944Z,21.24
2017-03-13T00:36:11.265Z,20.95
2017-03-13T00:37:11.202Z,21.24
2017-03-13T00:38:11.144Z,21.24
2017-03-13T00:39:11.097Z,21.04
2017-03-13T00:40:11.029Z,21.14
2017-03-13T00:41:10.953Z,21.24
2017-03-13T00:42:10.894Z,21.24
2017-03-13T00:43:10.830Z,21.24
2017-03-13T00:44:10.771Z,20.86
2017-03-13T00:45:10.724Z,21.24
2017-03-13T00:46:10.643Z,21.14
2017-03-13T00:47:10.596Z,21.24
2017-03-13T00:48:10.538Z,21.04
2017-03-13T00:49:10.459Z,21.24
2017-03-13T00:50:10.400Z,21.04
2017-03-13T00:51:10.386Z,21.24
2017-03-13T00:52:10.276Z,21.04
2017-03-13T00:53:10.209Z,21.04
2017-03-13T00:54:10.169Z,21.04
2017-03-13T00:55:10.087Z,21.14
2017-03-13T00:56:10.023Z,21.24
2017-03-13T00:57:09.964Z,21.14
2017-03-13T00:58:09.912Z,21.14
2017-03-13T00:59:09.841Z,21.04
2017-03-13T01:01:13.083Z,21.14
2017-03-13T01:02:12.715Z,21.14
2017-03-13T01:03:12.658Z,21.14
2017-03-13T01:04:12.593Z,21.04
2017-03-13T01:05:12.818Z,21.04
2017-03-13T01:06:12.468Z,21.24
2017-03-13T01:07:12.409Z,21.24
2017-03-13T01:08:12.381Z,20.95
2017-03-13T01:09:12.281Z,21.24
2017-03-13T01:10:12.228Z,21.04
2017-03-13T01:11:12.444Z,20.95
2017-03-13T01:12:12.099Z,21.04
2017-03-13T01:13:12.031Z,20.95
2017-03-13T01:14:11.976Z,21.14
2017-03-13T01:15:11.910Z,21.14
2017-03-13T01:16:11.851Z,21.14
2017-03-13T01:17:11.784Z,21.04
2017-03-13T01:18:11.387Z,20.95
2017-03-13T01:19:11.972Z,21.04
2017-03-13T01:20:11.614Z,21.04
2017-03-13T01:21:11.537Z,21.04
2017-03-13T01:22:11.142Z,21.04
2017-03-13T01:23:11.413Z,20.95
2017-03-13T01:24:11.633Z,21.14
2017-03-13T01:25:10.907Z,21.24
2017-03-13T01:26:11.227Z,21.04
2017-03-13T01:27:10.770Z,21.14
2017-03-13T01:28:11.104Z,21.24
2017-03-13T01:29:11.043Z,21.04
2017-03-13T01:30:10.983Z,21.04
2017-03-13T01:31:10.915Z,21.04
2017-03-13T01:32:10.854Z,21.04
2017-03-13T01:33:10.793Z,21.04
2017-03-13T01:34:10.741Z,20.86
2017-03-13T01:35:10.678Z,20.95
2017-03-13T01:36:10.622Z,21.04
2017-03-13T01:37:10.149Z,21.04
2017-03-13T01:38:10.769Z,21.14
2017-03-13T01:39:10.421Z,20.95
2017-03-13T01:40:10.359Z,21.04
2017-03-13T01:41:10.296Z,21.04
2017-03-13T01:42:10.240Z,21.04
2017-03-13T01:43:10.170Z,21.14
2017-03-13T01:44:09.724Z,21.04
2017-03-13T01:45:10.059Z,21.04
2017-03-13T01:46:09.991Z,21.14
2017-03-13T01:47:09.924Z,21.34
2017-03-13T01:48:09.468Z,20.95
2017-03-13T01:49:09.799Z,21.04
2017-03-13T01:50:09.743Z,21.04
2017-03-13T01:51:09.678Z,20.95
2017-03-13T01:52:09.221Z,21.34
2017-03-13T01:53:09.555Z,20.95
2017-03-13T01:54:09.489Z,20.86
2017-03-13T01:55:09.427Z,21.14
2017-03-13T01:56:09.365Z,21.14
2017-03-13T01:57:09.342Z,20.86
2017-03-13T01:58:08.859Z,21.04
2017-03-13T01:59:09.193Z,21.04
2017-03-13T02:00:09.122Z,20.95
2017-03-13T02:01:09.071Z,20.95
2017-03-13T02:02:08.600Z,20.95
2017-03-13T02:03:08.930Z,20.95
2017-03-13T02:04:08.872Z,21.14
2017-03-13T02:05:08.960Z,20.86
2017-03-13T02:06:08.363Z,20.95
2017-03-13T02:07:08.681Z,20.95
2017-03-13T02:08:08.629Z,20.95
2017-03-13T02:09:08.560Z,21.04
2017-03-13T02:10:08.497Z,20.95
2017-03-13T02:11:08.729Z,20.95
2017-03-13T02:12:08.370Z,20.95
2017-03-13T02:13:08.321Z,20.95
2017-03-13T02:14:08.540Z,20.86
2017-03-13T02:15:08.482Z,21.14
2017-03-13T02:16:08.124Z,21.14
2017-03-13T02:17:08.061Z,20.86
2017-03-13T02:18:07.621Z,21.14
2017-03-13T02:19:07.947Z,20.95
2017-03-13T02:20:07.884Z,20.95
2017-03-13T02:21:07.825Z,20.86
2017-03-13T02:22:07.765Z,21.04
2017-03-13T02:23:07.702Z,21.04
2017-03-13T02:24:07.249Z,21.04
2017-03-13T02:25:07.569Z,20.95
2017-03-13T02:26:07.505Z,21.14
2017-03-13T02:27:07.443Z,21.14
2017-03-13T02:28:07.380Z,20.86
2017-03-13T02:29:07.329Z,20.95
2017-03-13T02:30:06.860Z,20.95
2017-03-13T02:31:07.196Z,20.95
2017-03-13T02:32:07.131Z,21.04
2017-03-13T02:33:07.357Z,20.95
2017-03-13T02:34:07.008Z,20.95
2017-03-13T02:35:06.956Z,21.24
2017-03-13T02:36:06.889Z,21.04
2017-03-13T02:37:07.128Z,21.04
2017-03-13T02:38:06.773Z,21.04
2017-03-13T02:39:06.707Z,21.14
2017-03-13T02:40:06.637Z,20.86
2017-03-13T02:41:06.572Z,21.14
2017-03-13T02:42:06.522Z,20.86
2017-03-13T02:43:06.451Z,21.14
2017-03-13T02:44:06.398Z,20.95
2017-03-13T02:45:06.330Z,21.24
2017-03-13T02:46:06.546Z,20.95
2017-03-13T02:47:05.867Z,21.14
2017-03-13T02:48:06.152Z,20.95
2017-03-13T02:49:06.075Z,21.14
2017-03-13T02:50:05.624Z,20.95
2017-03-13T02:51:05.971Z,20.95
2017-03-13T02:52:05.894Z,20.86
2017-03-13T02:53:05.435Z,21.14
2017-03-13T02:54:05.769Z,20.95
2017-03-13T02:55:05.710Z,20.86
2017-03-13T02:56:05.643Z,20.95
2017-03-13T02:57:05.189Z,21.04
2017-03-13T02:58:05.814Z,21.04
2017-03-13T02:59:05.743Z,21.14
2017-03-13T03:00:05.397Z,21.14
2017-03-13T03:01:05.335Z,20.86
2017-03-13T03:02:05.278Z,21.14
2017-03-13T03:03:05.210Z,21.04
2017-03-13T03:04:05.439Z,20.95
2017-03-13T03:05:05.101Z,21.24
2017-03-13T03:06:05.025Z,20.86
2017-03-13T03:07:04.969Z,21.14
2017-03-13T03:08:04.910Z,20.86
2017-03-13T03:09:05.146Z,21.14
2017-03-13T03:10:04.778Z,21.04
2017-03-13T03:11:04.734Z,20.95
2017-03-13T03:12:04.651Z,20.95
2017-03-13T03:13:04.598Z,21.04
2017-03-13T03:14:04.527Z,21.14
2017-03-13T03:15:04.464Z,21.04
2017-03-13T03:16:04.410Z,21.04
2017-03-13T03:17:04.341Z,20.95
2017-03-13T03:18:04.282Z,21.14
2017-03-13T03:19:04.218Z,20.86
2017-03-13T03:20:04.159Z,21.04
2017-03-13T03:21:04.103Z,20.95
2017-03-13T03:22:04.029Z,21.04
2017-03-13T03:23:03.971Z,20.86
2017-03-13T03:24:03.911Z,20.86
2017-03-13T03:25:03.851Z,21.14
2017-03-13T03:26:03.782Z,20.95
2017-03-13T03:27:03.731Z,21.04
2017-03-13T03:28:03.658Z,21.14
2017-03-13T03:29:03.596Z,21.04
2017-03-13T03:30:03.539Z,21.04
2017-03-13T03:31:03.471Z,21.04
2017-03-13T03:32:03.410Z,21.14
2017-03-13T03:33:03.349Z,21.04
2017-03-13T03:34:03.285Z,21.04
2017-03-13T03:35:03.221Z,21.04
2017-03-13T03:36:02.833Z,21.14
2017-03-13T03:37:03.099Z,21.24
2017-03-13T03:38:03.049Z,20.95
2017-03-13T03:39:02.985Z,21.04
2017-03-13T03:40:02.920Z,21.04
2017-03-13T03:41:02.857Z,21.04
2017-03-13T03:42:03.096Z,20.86
2017-03-13T03:43:02.335Z,20.86
2017-03-13T03:44:02.673Z,21.04
2017-03-13T03:45:02.602Z,21.04
2017-03-13T03:46:02.150Z,20.95
2017-03-13T03:47:02.764Z,21.04
2017-03-13T03:48:02.719Z,20.86
2017-03-13T03:49:02.357Z,21.04
2017-03-13T03:50:02.303Z,20.95
2017-03-13T03:51:02.232Z,21.04
2017-03-13T03:52:02.173Z,20.86
2017-03-13T03:53:02.421Z,21.04
2017-03-13T03:54:02.047Z,21.04
2017-03-13T03:55:01.671Z,21.04
2017-03-13T03:56:02.208Z,21.14
2017-03-13T03:57:01.863Z,21.04
2017-03-13T03:58:01.818Z,21.04
2017-03-13T03:59:01.738Z,20.95
2017-03-13T04:00:01.288Z,21.04
2017-03-13T04:01:01.627Z,21.04
2017-03-13T04:02:01.556Z,21.04
2017-03-13T04:03:01.500Z,21.24
2017-03-13T04:04:01.435Z,21.04
2017-03-13T04:05:01.685Z,20.86
2017-03-13T04:06:01.302Z,20.37
2017-03-13T04:07:01.239Z,20.56
2017-03-13T04:08:01.184Z,20.37
2017-03-13T04:09:01.138Z,20.18
2017-03-13T04:10:01.057Z,20.08
2017-03-13T04:11:00.997Z,20.28
2017-03-13T04:12:00.927Z,20.37
2017-03-13T04:13:00.869Z,20.18
2017-03-13T04:14:00.965Z,20.28
2017-03-13T04:15:00.740Z,20.47
2017-03-13T04:16:00.676Z,20.47
2017-03-13T04:17:00.625Z,20.47
2017-03-13T04:18:00.578Z,20.18
2017-03-13T04:19:00.495Z,20.18
2017-03-13T04:20:00.433Z,20.18
2017-03-13T04:21:00.384Z,19.98
2017-03-13T04:22:00.320Z,19.89
2017-03-13T04:23:00.244Z,19.7
2017-03-13T04:24:00.194Z,19.7
2017-03-13T04:25:00.119Z,19.79
2017-03-13T04:26:00.066Z,19.7
2017-03-13T04:27:00.011Z,19.5
2017-03-13T04:27:59.952Z,19.6
2017-03-13T04:28:59.870Z,19.79
2017-03-13T04:29:59.828Z,19.6
2017-03-13T04:30:59.761Z,19.7
2017-03-13T04:31:59.692Z,19.4
2017-03-13T04:32:59.628Z,19.7
2017-03-13T04:33:59.564Z,19.7
2017-03-13T04:34:59.499Z,19.5
2017-03-13T04:35:59.439Z,19.5
2017-03-13T04:36:59.378Z,19.5
2017-03-13T04:37:59.311Z,19.4
2017-03-13T04:38:59.253Z,19.31
2017-03-13T04:39:59.189Z,19.4
2017-03-13T04:40:59.412Z,19.5
2017-03-13T04:41:59.061Z,19.31
2017-03-13T04:42:59.002Z,19.31
2017-03-13T04:43:58.943Z,19.31
2017-03-13T04:44:58.877Z,19.21
2017-03-13T04:45:59.108Z,19.31
2017-03-13T04:46:58.753Z,19.31
2017-03-13T04:47:58.694Z,19.2
2017-03-13T04:48:58.630Z,19.12
2017-03-13T04:49:58.566Z,19.2
2017-03-13T04:50:58.505Z,19.12
2017-03-13T04:51:58.444Z,19.12
2017-03-13T04:52:58.668Z,19.02
2017-03-13T04:53:58.317Z,19.1
2017-03-13T04:54:58.270Z,19.01
2017-03-13T04:55:58.192Z,19.02
2017-03-13T04:56:58.419Z,19.12
2017-03-13T04:57:58.068Z,19.21
2017-03-13T04:58:58.010Z,19.21
2017-03-13T04:59:57.948Z,19.1
2017-03-13T05:00:57.885Z,18.73
2017-03-13T05:01:58.109Z,18.92
2017-03-13T05:02:57.768Z,18.82
2017-03-13T05:03:57.699Z,18.91
2017-03-13T05:04:57.646Z,18.73
2017-03-13T05:05:57.194Z,18.82
2017-03-13T05:06:57.519Z,18.82
2017-03-13T05:07:57.449Z,18.92
2017-03-13T05:08:57.386Z,19.02
2017-03-13T05:09:57.333Z,18.92
2017-03-13T05:10:57.261Z,19.01
2017-03-13T05:11:57.204Z,19.1
2017-03-13T05:12:57.141Z,19.01
2017-03-13T05:13:57.075Z,18.91
2017-03-13T05:14:57.012Z,19.1
2017-03-13T05:15:56.965Z,19.01
2017-03-13T05:16:56.921Z,19.1
2017-03-13T05:17:56.825Z,19.02
2017-03-13T05:18:56.769Z,19.1
2017-03-13T05:19:56.708Z,18.82
2017-03-13T05:20:56.639Z,18.91
2017-03-13T05:21:56.580Z,18.92
2017-03-13T05:22:56.521Z,18.91
2017-03-13T05:23:56.469Z,18.92
2017-03-13T05:24:56.406Z,18.62
2017-03-13T05:25:56.621Z,18.72
2017-03-13T05:26:56.267Z,18.82
2017-03-13T05:27:56.205Z,18.82
2017-03-13T05:28:56.153Z,18.62
2017-03-13T05:29:56.081Z,18.62
2017-03-13T05:30:56.119Z,18.72
2017-03-13T05:31:55.958Z,18.53
2017-03-13T05:32:55.899Z,18.72
2017-03-13T05:33:55.833Z,18.62
2017-03-13T05:34:55.769Z,18.62
2017-03-13T05:35:55.711Z,18.53
2017-03-13T05:36:55.647Z,18.62
2017-03-13T05:37:55.874Z,18.33
2017-03-13T05:38:55.523Z,18.53
2017-03-13T05:39:55.487Z,18.04
2017-03-13T05:40:55.396Z,18.14
2017-03-13T05:41:55.336Z,18.14
2017-03-13T05:42:55.280Z,18.04
2017-03-13T05:43:55.221Z,18.04
2017-03-13T05:44:55.156Z,18.24
2017-03-13T05:45:55.094Z,18.14
2017-03-13T05:46:54.647Z,18.33
2017-03-13T05:47:54.962Z,18.33
2017-03-13T05:48:54.527Z,18.44
2017-03-13T05:49:54.445Z,18.33
2017-03-13T05:50:54.790Z,18.43
2017-03-13T05:51:55.004Z,18.33
2017-03-13T05:52:54.653Z,18.33
2017-03-13T05:53:54.591Z,18.34
2017-03-13T05:54:54.527Z,18.34
2017-03-13T05:55:54.476Z,18.63
2017-03-13T05:56:54.405Z,18.53
2017-03-13T05:57:54.628Z,18.53
2017-03-13T05:58:54.279Z,18.43
2017-03-13T05:59:54.235Z,18.24
2017-03-13T06:00:54.307Z,18.04
2017-03-13T06:01:54.107Z,18.04
2017-03-13T06:02:54.034Z,18.04
2017-03-13T06:03:53.967Z,18.04
2017-03-13T06:04:53.906Z,18.14
2017-03-13T06:05:54.132Z,18.04
2017-03-13T06:06:53.785Z,18.24
2017-03-13T06:07:53.716Z,18.14
2017-03-13T06:08:53.651Z,18.14
2017-03-13T06:09:53.605Z,18.14
2017-03-13T06:10:53.534Z,18.04
2017-03-13T06:11:53.469Z,18.24
2017-03-13T06:12:53.407Z,18.04
2017-03-13T06:13:53.346Z,17.96
2017-03-13T06:14:53.290Z,17.95
2017-03-13T06:15:53.222Z,18.04
2017-03-13T06:16:53.159Z,18.14
2017-03-13T06:17:53.382Z,18.24
2017-03-13T06:18:53.033Z,18.14
2017-03-13T06:19:52.971Z,18.04
2017-03-13T06:20:52.926Z,17.95
2017-03-13T06:21:52.849Z,17.66
2017-03-13T06:22:52.784Z,17.66
2017-03-13T06:23:52.723Z,17.56
2017-03-13T06:24:52.669Z,17.56
2017-03-13T06:25:52.597Z,17.76
2017-03-13T06:26:52.535Z,17.67
2017-03-13T06:27:52.474Z,17.76
2017-03-13T06:28:52.417Z,17.85
2017-03-13T06:29:52.347Z,17.56
2017-03-13T06:30:52.291Z,17.76
2017-03-13T06:31:52.226Z,17.18
2017-03-13T06:32:52.463Z,17.27
2017-03-13T06:33:52.102Z,17.27
2017-03-13T06:34:52.048Z,17.18
2017-03-13T06:35:51.996Z,17.08
2017-03-13T06:36:51.927Z,17.38
2017-03-13T06:37:51.461Z,17.37
2017-03-13T06:38:52.080Z,17.27
2017-03-13T06:39:51.731Z,17.28
2017-03-13T06:40:51.666Z,17.47
2017-03-13T06:41:51.602Z,17.56
2017-03-13T06:42:51.541Z,17.76
2017-03-13T06:43:51.478Z,17.66
2017-03-13T06:44:51.703Z,17.66
2017-03-13T06:45:51.363Z,17.56
2017-03-13T06:46:51.294Z,17.47
2017-03-13T06:47:51.241Z,17.47
2017-03-13T06:48:51.467Z,17.47
2017-03-13T06:49:51.115Z,17.47
2017-03-13T06:50:51.054Z,17.66
2017-03-13T06:51:50.982Z,17.56
2017-03-13T06:52:50.919Z,17.47
2017-03-13T06:53:50.856Z,17.56
2017-03-13T06:54:50.936Z,17.47
2017-03-13T06:55:50.733Z,17.47
2017-03-13T06:56:50.283Z,17.47
2017-03-13T06:57:50.610Z,17.47
2017-03-13T06:58:50.157Z,17.37
2017-03-13T06:59:50.496Z,17.66
2017-03-13T07:00:50.421Z,16.99
2017-03-13T07:01:50.359Z,17.56
2017-03-13T07:02:50.298Z,17.37
2017-03-13T07:03:50.234Z,17.56
2017-03-13T07:04:50.184Z,16.89
2017-03-13T07:05:50.105Z,16.99
2017-03-13T07:06:50.047Z,16.99
2017-03-13T07:07:49.987Z,16.99
2017-03-13T07:08:49.934Z,16.99
2017-03-13T07:09:49.859Z,16.99
2017-03-13T07:10:49.796Z,16.99
2017-03-13T07:11:49.735Z,17.09
2017-03-13T07:12:49.675Z,16.99
2017-03-13T07:13:49.614Z,16.89
2017-03-13T07:14:49.548Z,16.99
2017-03-13T07:15:49.491Z,16.89
2017-03-13T07:16:49.436Z,16.99
2017-03-13T07:17:49.362Z,17.08
2017-03-13T07:18:49.303Z,17.08
2017-03-13T07:19:49.238Z,16.99
2017-03-13T07:20:49.178Z,17.08
2017-03-13T07:21:49.115Z,17.09
2017-03-13T07:22:49.053Z,17.18
2017-03-13T07:23:48.987Z,17.09
2017-03-13T07:24:48.942Z,17.08
2017-03-13T07:25:48.863Z,17.08
2017-03-13T07:26:48.801Z,17.18
2017-03-13T07:27:48.741Z,17.08
2017-03-13T07:28:48.348Z,16.99
2017-03-13T07:29:48.288Z,17.37
2017-03-13T07:30:48.165Z,17.08
2017-03-13T07:31:48.491Z,17.18
2017-03-13T07:32:48.434Z,17.28
2017-03-13T07:33:48.366Z,16.99
2017-03-13T07:34:48.303Z,17.08
2017-03-13T07:35:48.243Z,17.09
2017-03-13T07:36:48.196Z,17.18
2017-03-13T07:37:47.730Z,17.09
2017-03-13T07:38:48.067Z,17.19
2017-03-13T07:39:47.995Z,17.08
2017-03-13T07:40:47.931Z,17.18
2017-03-13T07:41:47.881Z,17.18
2017-03-13T07:42:48.100Z,17.27
2017-03-13T07:43:47.743Z,17.08
2017-03-13T07:44:47.688Z,17.18
2017-03-13T07:45:47.843Z,17.08
2017-03-13T07:46:47.573Z,17.47
2017-03-13T07:47:47.498Z,17.47
2017-03-13T07:48:47.435Z,17.27
2017-03-13T07:49:46.977Z,17.38
2017-03-13T07:50:47.565Z,17.47
2017-03-13T07:51:47.247Z,17.66
2017-03-13T07:52:47.188Z,17.37
2017-03-13T07:53:47.121Z,17.18
2017-03-13T07:54:47.062Z,17.18
2017-03-13T07:55:47.096Z,17.27
2017-03-13T07:56:46.544Z,17.18
2017-03-13T07:57:46.878Z,17.28
2017-03-13T07:58:46.820Z,17.38
2017-03-13T07:59:46.764Z,17.28
2017-03-13T08:00:46.686Z,17.27
2017-03-13T08:01:46.642Z,17.38
2017-03-13T08:02:46.561Z,17.67
2017-03-13T08:03:46.499Z,17.57
2017-03-13T08:04:46.437Z,17.38
2017-03-13T08:05:46.380Z,17.47
2017-03-13T08:06:46.312Z,17.76
2017-03-13T08:07:46.251Z,17.56
2017-03-13T08:08:46.488Z,17.66
2017-03-13T08:09:46.133Z,17.47
2017-03-13T08:10:46.357Z,17.66
2017-03-13T08:11:46.323Z,17.76
2017-03-13T08:12:45.939Z,17.37
2017-03-13T08:13:45.886Z,17.18
2017-03-13T08:14:45.823Z,17.18
2017-03-13T08:15:46.039Z,17.18
2017-03-13T08:16:45.690Z,17.37
2017-03-13T08:17:45.634Z,17.37
2017-03-13T08:18:45.567Z,17.76
2017-03-13T08:19:45.505Z,17.66
2017-03-13T08:20:45.441Z,17.76
2017-03-13T08:21:45.385Z,17.56
2017-03-13T08:22:45.321Z,17.85
2017-03-13T08:23:45.258Z,17.95
2017-03-13T08:24:45.210Z,17.96
2017-03-13T08:25:45.139Z,18.04
2017-03-13T08:26:45.094Z,18.14
2017-03-13T08:27:45.006Z,18.14
2017-03-13T08:28:44.954Z,18.24
2017-03-13T08:29:44.882Z,18.24
2017-03-13T08:30:44.828Z,18.05
2017-03-13T08:31:44.759Z,18.14
2017-03-13T08:32:44.952Z,18.24
2017-03-13T08:33:44.643Z,18.15
2017-03-13T08:34:44.320Z,18.53
2017-03-13T08:35:44.523Z,18.15
2017-03-13T08:36:44.450Z,18.05
2017-03-13T08:37:44.397Z,18.63
2017-03-13T08:38:44.321Z,18.82
2017-03-13T08:39:44.264Z,19.31
2017-03-13T08:40:44.198Z,19.31
2017-03-13T08:41:44.248Z,19.7
2017-03-13T08:42:44.334Z,19.79
2017-03-13T08:43:44.027Z,20.28
2017-03-13T08:44:43.949Z,20.18
2017-03-13T08:45:44.176Z,20.37
2017-03-13T08:46:43.833Z,20.47
2017-03-13T08:47:43.769Z,20.86
2017-03-13T08:48:43.988Z,20.86
2017-03-13T08:49:43.650Z,20.95
2017-03-13T08:50:43.881Z,21.44
2017-03-13T08:51:43.817Z,21.04
2017-03-13T08:52:43.461Z,21.72
2017-03-13T08:53:43.390Z,21.72
2017-03-13T08:54:43.325Z,21.62
2017-03-13T08:55:43.271Z,22.02
2017-03-13T08:56:43.209Z,21.62
2017-03-13T08:57:43.147Z,22.4
2017-03-13T08:58:43.106Z,22.69
2017-03-13T08:59:43.018Z,22.59
2017-03-13T09:00:42.963Z,22.5
2017-03-13T09:01:42.900Z,23.08
2017-03-13T09:02:43.151Z,23.08
2017-03-13T09:03:42.770Z,23.27
2017-03-13T09:04:42.707Z,23.27
2017-03-13T09:05:42.747Z,23.27
2017-03-13T09:06:42.584Z,22.88
2017-03-13T09:07:42.525Z,22.5
2017-03-13T09:08:42.495Z,21.53
2017-03-13T09:09:42.398Z,21.82
2017-03-13T09:10:42.101Z,21.72
2017-03-13T09:11:42.273Z,21.72
2017-03-13T09:12:42.322Z,21.72
2017-03-13T09:13:42.166Z,21.53
2017-03-13T09:14:42.227Z,21.72
2017-03-13T09:15:42.344Z,21.72
2017-03-13T09:16:41.976Z,21.82
2017-03-13T09:17:42.150Z,21.82
2017-03-13T09:18:41.844Z,21.62
2017-03-13T09:19:41.797Z,21.62
2017-03-13T09:20:41.716Z,21.53
2017-03-13T09:21:41.662Z,21.34
2017-03-13T09:22:41.853Z,21.34
2017-03-13T09:23:41.543Z,21.14
2017-03-13T09:24:41.481Z,21.34
2017-03-13T09:25:41.411Z,21.34
2017-03-13T09:26:41.357Z,21.04
2017-03-13T09:27:40.895Z,20.95
2017-03-13T09:28:41.229Z,20.95
2017-03-13T09:29:40.838Z,20.66
2017-03-13T09:30:40.956Z,20.66
2017-03-13T09:31:41.043Z,20.56
2017-03-13T09:32:40.973Z,20.56
2017-03-13T09:33:40.916Z,20.56
2017-03-13T09:34:40.859Z,20.56
2017-03-13T09:35:40.787Z,20.56
2017-03-13T09:36:40.726Z,21.62
2017-03-13T09:37:40.664Z,21.34
2017-03-13T09:38:40.616Z,21.24
2017-03-13T09:39:43.472Z,21.62
2017-03-13T09:40:40.232Z,21.62
2017-03-13T09:41:40.415Z,22.3
2017-03-13T09:42:40.355Z,22.98
2017-03-13T09:43:40.513Z,23.38
2017-03-13T09:44:40.231Z,23.18
2017-03-13T09:45:40.023Z,23.66
2017-03-13T09:46:40.107Z,24.05
2017-03-13T09:47:40.048Z,24.23
2017-03-13T09:48:39.984Z,24.81
2017-03-13T09:49:39.933Z,25.1
2017-03-13T09:50:40.110Z,25.6
2017-03-13T09:51:39.845Z,25.89
2017-03-13T09:52:39.747Z,26.08
2017-03-13T09:53:39.671Z,26.37
2017-03-13T09:54:39.608Z,26.86
2017-03-13T09:55:39.909Z,26.66
2017-03-13T09:56:39.493Z,27.14
2017-03-13T09:57:39.423Z,27.44
2017-03-13T09:58:39.360Z,27.72
2017-03-13T09:59:39.305Z,27.72
2017-03-13T10:00:39.537Z,28.4
2017-03-13T10:01:39.181Z,28.3
2017-03-13T10:02:39.130Z,28.59
2017-03-13T10:03:39.464Z,28.69
2017-03-13T10:04:39.002Z,28.5
2017-03-13T10:05:39.182Z,28.69
2017-03-13T10:06:39.221Z,28.59
2017-03-13T10:07:38.956Z,28.78
2017-03-13T10:08:38.748Z,28.98
2017-03-13T10:09:38.687Z,29.17
2017-03-13T10:10:38.948Z,29.85
2017-03-13T10:11:38.667Z,29.66
2017-03-13T10:12:38.501Z,29.75
2017-03-13T10:13:38.724Z,29.75
2017-03-13T10:14:37.981Z,29.75
2017-03-13T10:15:38.310Z,29.85
2017-03-13T10:16:38.253Z,30.14
2017-03-13T10:17:38.203Z,30.14
2017-03-13T10:18:38.129Z,30.33
2017-03-13T10:19:38.073Z,30.62
2017-03-13T10:20:38.012Z,30.52
2017-03-13T10:21:37.944Z,30.43
2017-03-13T10:22:37.888Z,30.33
2017-03-13T10:23:37.826Z,30.62
2017-03-13T10:24:37.756Z,30.91
2017-03-13T10:25:37.701Z,31.12
2017-03-13T10:26:37.656Z,30.83
2017-03-13T10:27:37.179Z,31.12
2017-03-13T10:28:37.525Z,31.12
2017-03-13T10:29:37.453Z,31.51
2017-03-13T10:30:37.416Z,31.51
2017-03-13T10:31:37.340Z,30.83
2017-03-13T10:32:37.272Z,31.22
2017-03-13T10:33:37.570Z,31.51
2017-03-13T10:34:37.440Z,31.6
2017-03-13T10:35:37.121Z,31.41
2017-03-13T10:36:37.035Z,31.51
2017-03-13T10:37:36.962Z,31.51
2017-03-13T10:38:36.897Z,31.6
2017-03-13T10:39:36.988Z,31.89
2017-03-13T10:40:36.775Z,31.7
2017-03-13T10:41:36.329Z,31.89
2017-03-13T10:42:36.660Z,31.99
2017-03-13T10:43:36.599Z,32.38
2017-03-13T10:44:36.541Z,32.47
2017-03-13T10:45:36.490Z,31.8
2017-03-13T10:46:36.699Z,31.22
2017-03-13T10:47:36.641Z,27.45
2017-03-13T10:48:36.299Z,26.87
2017-03-13T10:49:36.382Z,25.71
2017-03-13T10:50:36.462Z,25.42
2017-03-13T10:51:35.711Z,25.51
2017-03-13T10:52:36.121Z,25.51
2017-03-13T10:53:36.003Z,25.99
2017-03-13T10:54:35.916Z,27.64
2017-03-13T10:55:35.864Z,27.64
2017-03-13T10:56:35.795Z,27.15
2017-03-13T10:57:35.749Z,27.06
2017-03-13T10:58:35.681Z,26.57
2017-03-13T10:59:35.609Z,26.39
2017-03-13T11:00:35.899Z,25.99
2017-03-13T11:01:35.486Z,25.99
2017-03-13T11:02:35.442Z,25.9
2017-03-13T11:03:35.362Z,25.81
2017-03-13T11:04:35.313Z,26.19
2017-03-13T11:05:35.252Z,25.99
2017-03-13T11:06:35.176Z,25.81
2017-03-13T11:07:35.128Z,25.42
2017-03-13T11:08:34.670Z,25.42
2017-03-13T11:09:35.003Z,25.13
2017-03-13T11:10:34.936Z,24.73
2017-03-13T11:11:34.884Z,24.84
2017-03-13T11:12:34.812Z,24.93
2017-03-13T11:13:35.106Z,24.84
2017-03-13T11:14:34.699Z,24.84
2017-03-13T11:15:34.626Z,24.55
2017-03-13T11:16:34.574Z,24.45
2017-03-13T11:17:34.522Z,24.15
2017-03-13T11:18:34.459Z,23.96
2017-03-13T11:19:34.382Z,24.05
2017-03-13T11:20:33.928Z,24.15
2017-03-13T11:21:34.281Z,24.05
2017-03-13T11:22:33.812Z,24.05
2017-03-13T11:23:34.157Z,23.58
2017-03-13T11:24:34.076Z,23.18
2017-03-13T11:25:34.023Z,23.66
2017-03-13T11:26:33.962Z,23.86
2017-03-13T11:27:33.891Z,23.47
2017-03-13T11:28:33.831Z,23.47
2017-03-13T11:29:33.773Z,23.38
2017-03-13T11:30:33.728Z,23.08
2017-03-13T11:31:33.653Z,23.18
2017-03-13T11:32:33.582Z,23.19
2017-03-13T11:33:33.535Z,23.29
2017-03-13T11:34:33.464Z,23.28
2017-03-13T11:35:33.400Z,22.99
2017-03-13T11:36:33.347Z,23.08
2017-03-13T11:37:33.299Z,23.08
2017-03-13T11:38:33.213Z,23.08
2017-03-13T11:39:33.164Z,23.08
2017-03-13T11:40:33.103Z,22.8
2017-03-13T11:41:33.036Z,22.6
2017-03-13T11:42:33.011Z,22.5
2017-03-13T11:43:32.913Z,22.7
2017-03-13T11:44:32.856Z,22.6
2017-03-13T11:45:32.787Z,22.22
2017-03-13T11:46:32.727Z,22.31
2017-03-13T11:47:32.662Z,22.12
2017-03-13T11:48:32.611Z,21.73
2017-03-13T11:49:32.415Z,21.64
2017-03-13T11:50:32.480Z,21.73
2017-03-13T11:51:32.426Z,21.83
2017-03-13T11:52:31.968Z,21.64
2017-03-13T11:53:31.906Z,21.64
2017-03-13T11:54:32.522Z,21.44
2017-03-13T11:55:31.777Z,21.35
2017-03-13T11:56:31.712Z,20.96
2017-03-13T11:57:32.047Z,21.15
2017-03-13T11:58:31.984Z,21.06
2017-03-13T11:59:31.722Z,20.96
2017-03-13T12:00:31.738Z,21.06
2017-03-13T12:01:31.811Z,20.77
2017-03-13T12:02:31.352Z,20.57
2017-03-13T12:03:31.977Z,20.67
2017-03-13T12:04:31.640Z,20.38
2017-03-13T12:05:31.839Z,20.28
2017-03-13T12:06:31.496Z,20.57
2017-03-13T12:07:31.432Z,20.28
2017-03-13T12:08:31.373Z,20.28
2017-03-13T12:09:31.315Z,20.48
2017-03-13T12:10:31.104Z,20.19
2017-03-13T12:11:31.188Z,20.38
2017-03-13T12:12:31.130Z,20.28
2017-03-13T12:13:31.065Z,20.19
2017-03-13T12:14:31.010Z,20.19
2017-03-13T12:15:30.952Z,19.9
2017-03-13T12:16:30.884Z,19.7
2017-03-13T12:17:31.130Z,19.9
2017-03-13T12:18:30.763Z,19.61
2017-03-13T12:19:30.705Z,19.7
2017-03-13T12:20:30.985Z,19.8
2017-03-13T12:21:30.578Z,19.61
2017-03-13T12:22:30.115Z,19.9
2017-03-13T12:23:30.450Z,19.51
2017-03-13T12:24:30.389Z,19.42
2017-03-13T12:25:30.635Z,19.7
2017-03-13T12:26:30.277Z,19.61
2017-03-13T12:27:30.200Z,19.32
2017-03-13T12:28:29.752Z,19.42
2017-03-13T12:29:30.081Z,19.61
2017-03-13T12:30:30.013Z,19.22
2017-03-13T12:31:29.967Z,19.12
2017-03-13T12:32:29.499Z,19.03
2017-03-13T12:33:29.437Z,18.93
2017-03-13T12:34:29.769Z,19.12
2017-03-13T12:35:29.718Z,18.93
2017-03-13T12:36:29.647Z,18.74
2017-03-13T12:37:29.196Z,18.84
2017-03-13T12:38:29.536Z,19.03
2017-03-13T12:39:29.461Z,18.93
2017-03-13T12:40:29.140Z,18.93
2017-03-13T12:41:29.346Z,19.03
2017-03-13T12:42:28.950Z,19.12
2017-03-13T12:43:29.224Z,19.03
2017-03-13T12:44:29.180Z,19.03
2017-03-13T12:45:28.798Z,19.03
2017-03-13T12:46:28.642Z,18.84
2017-03-13T12:47:28.979Z,18.64
2017-03-13T12:48:28.910Z,18.55
2017-03-13T12:49:28.847Z,18.74
2017-03-13T12:50:28.799Z,18.84
2017-03-13T12:51:28.341Z,18.16
2017-03-13T12:54:09.996Z,18.16
2017-03-13T12:54:20.657Z,18.06
2017-03-13T12:55:20.594Z,18.55